sensor_id;sensor_type;location;lat;lon;timestamp;P1;durP1;ratioP1;P2;durP2;ratioP2
57297;SDS011;43147;50.972;18.210;2024-01-11T00:01:48;196.00;;;65.90;;
57297;SDS011;43147;50.972;18.210;2024-01-11T00:04:14;196.40;;;69.60;;
57297;SDS011;43147;50.972;18.210;2024-01-11T00:06:43;259.50;;;88.80;;
57297;SDS011;43147;50.972;18.210;2024-01-11T00:09:09;362.70;;;107.40;;
57297;SDS011;43147;50.972;18.210;2024-01-11T00:11:34;318.50;;;97.20;;
57297;SDS011;43147;50.972;18.210;2024-01-11T00:14:00;256.90;;;80.10;;
57297;SDS011;43147;50.972;18.210;2024-01-11T00:16:25;292.10;;;93.20;;
57297;SDS011;43147;50.972;18.210;2024-01-11T00:18:51;230.60;;;78.10;;
57297;SDS011;43147;50.972;18.210;2024-01-11T00:21:17;218.50;;;77.20;;
57297;SDS011;43147;50.972;18.210;2024-01-11T00:23:42;290.80;;;97.10;;
57297;SDS011;43147;50.972;18.210;2024-01-11T00:26:08;277.40;;;91.90;;
57297;SDS011;43147;50.972;18.210;2024-01-11T00:28:33;346.30;;;102.50;;
57297;SDS011;43147;50.972;18.210;2024-01-11T00:30:59;387.60;;;127.60;;
57297;SDS011;43147;50.972;18.210;2024-01-11T00:33:24;277.20;;;93.90;;
57297;SDS011;43147;50.972;18.210;2024-01-11T00:35:50;272.60;;;94.80;;
57297;SDS011;43147;50.972;18.210;2024-01-11T00:38:15;309.90;;;100.70;;
57297;SDS011;43147;50.972;18.210;2024-01-11T00:40:41;274.00;;;86.70;;
57297;SDS011;43147;50.972;18.210;2024-01-11T00:43:06;263.90;;;82.00;;
57297;SDS011;43147;50.972;18.210;2024-01-11T00:45:32;266.50;;;85.70;;
57297;SDS011;43147;50.972;18.210;2024-01-11T00:47:57;213.20;;;75.10;;
57297;SDS011;43147;50.972;18.210;2024-01-11T00:50:23;234.10;;;79.60;;
57297;SDS011;43147;50.972;18.210;2024-01-11T00:52:48;268.90;;;93.80;;
57297;SDS011;43147;50.972;18.210;2024-01-11T00:55:14;358.80;;;115.80;;
57297;SDS011;43147;50.972;18.210;2024-01-11T00:57:41;371.40;;;125.80;;
57297;SDS011;43147;50.972;18.210;2024-01-11T01:00:07;224.80;;;79.60;;
57297;SDS011;43147;50.972;18.210;2024-01-11T01:02:33;240.60;;;83.50;;
57297;SDS011;43147;50.972;18.210;2024-01-11T01:04:59;221.70;;;79.10;;
57297;SDS011;43147;50.972;18.210;2024-01-11T01:07:24;306.80;;;96.60;;
57297;SDS011;43147;50.972;18.210;2024-01-11T01:09:50;203.10;;;69.10;;
57297;SDS011;43147;50.972;18.210;2024-01-11T01:12:15;135.30;;;56.50;;
57297;SDS011;43147;50.972;18.210;2024-01-11T01:14:41;174.40;;;64.40;;
57297;SDS011;43147;50.972;18.210;2024-01-11T01:17:06;195.10;;;71.60;;
57297;SDS011;43147;50.972;18.210;2024-01-11T01:19:32;240.50;;;70.50;;
57297;SDS011;43147;50.972;18.210;2024-01-11T01:21:58;250.60;;;80.70;;
57297;SDS011;43147;50.972;18.210;2024-01-11T01:24:24;244.40;;;78.10;;
57297;SDS011;43147;50.972;18.210;2024-01-11T01:26:49;275.70;;;96.00;;
57297;SDS011;43147;50.972;18.210;2024-01-11T01:29:14;335.40;;;106.90;;
57297;SDS011;43147;50.972;18.210;2024-01-11T01:31:40;276.10;;;86.80;;
57297;SDS011;43147;50.972;18.210;2024-01-11T01:34:06;292.80;;;92.10;;
57297;SDS011;43147;50.972;18.210;2024-01-11T01:36:32;200.70;;;67.40;;
57297;SDS011;43147;50.972;18.210;2024-01-11T01:38:57;216.30;;;67.70;;
57297;SDS011;43147;50.972;18.210;2024-01-11T01:41:23;170.80;;;61.50;;
57297;SDS011;43147;50.972;18.210;2024-01-11T01:43:48;187.20;;;66.20;;
57297;SDS011;43147;50.972;18.210;2024-01-11T01:46:15;227.10;;;76.30;;
57297;SDS011;43147;50.972;18.210;2024-01-11T01:48:45;323.80;;;104.70;;
57297;SDS011;43147;50.972;18.210;2024-01-11T01:51:10;222.00;;;65.80;;
57297;SDS011;43147;50.972;18.210;2024-01-11T01:53:36;143.90;;;53.40;;
57297;SDS011;43147;50.972;18.210;2024-01-11T01:56:02;69.50;;;29.40;;
57297;SDS011;43147;50.972;18.210;2024-01-11T01:58:28;142.20;;;47.20;;
57297;SDS011;43147;50.972;18.210;2024-01-11T02:00:54;203.80;;;70.00;;
57297;SDS011;43147;50.972;18.210;2024-01-11T02:03:20;208.30;;;63.00;;
57297;SDS011;43147;50.972;18.210;2024-01-11T02:05:45;157.80;;;59.20;;
57297;SDS011;43147;50.972;18.210;2024-01-11T02:08:12;202.50;;;61.00;;
57297;SDS011;43147;50.972;18.210;2024-01-11T02:10:41;221.50;;;77.70;;
57297;SDS011;43147;50.972;18.210;2024-01-11T02:13:07;270.30;;;82.70;;
57297;SDS011;43147;50.972;18.210;2024-01-11T02:15:33;173.10;;;63.20;;
57297;SDS011;43147;50.972;18.210;2024-01-11T02:17:58;207.30;;;76.20;;
57297;SDS011;43147;50.972;18.210;2024-01-11T02:20:24;217.20;;;67.60;;
57297;SDS011;43147;50.972;18.210;2024-01-11T02:22:51;299.10;;;97.00;;
57297;SDS011;43147;50.972;18.210;2024-01-11T02:25:18;342.70;;;105.70;;
57297;SDS011;43147;50.972;18.210;2024-01-11T02:27:47;352.60;;;105.60;;
57297;SDS011;43147;50.972;18.210;2024-01-11T02:30:13;331.60;;;112.20;;
57297;SDS011;43147;50.972;18.210;2024-01-11T02:32:39;254.00;;;83.50;;
57297;SDS011;43147;50.972;18.210;2024-01-11T02:35:05;293.70;;;97.00;;
57297;SDS011;43147;50.972;18.210;2024-01-11T02:37:31;308.80;;;98.90;;
57297;SDS011;43147;50.972;18.210;2024-01-11T02:39:57;230.20;;;77.70;;
57297;SDS011;43147;50.972;18.210;2024-01-11T02:42:23;247.30;;;85.70;;
57297;SDS011;43147;50.972;18.210;2024-01-11T02:44:48;191.50;;;73.60;;
57297;SDS011;43147;50.972;18.210;2024-01-11T02:47:14;316.10;;;98.10;;
57297;SDS011;43147;50.972;18.210;2024-01-11T02:49:39;308.90;;;93.50;;
57297;SDS011;43147;50.972;18.210;2024-01-11T02:52:05;291.30;;;91.20;;
57297;SDS011;43147;50.972;18.210;2024-01-11T02:54:30;325.70;;;105.30;;
57297;SDS011;43147;50.972;18.210;2024-01-11T02:56:56;260.00;;;84.50;;
57297;SDS011;43147;50.972;18.210;2024-01-11T02:59:22;317.10;;;96.10;;
57297;SDS011;43147;50.972;18.210;2024-01-11T03:01:49;265.20;;;83.50;;
57297;SDS011;43147;50.972;18.210;2024-01-11T03:04:15;269.90;;;85.70;;
57297;SDS011;43147;50.972;18.210;2024-01-11T03:06:42;266.50;;;88.30;;
57297;SDS011;43147;50.972;18.210;2024-01-11T03:09:07;263.50;;;87.40;;
57297;SDS011;43147;50.972;18.210;2024-01-11T03:11:33;204.10;;;76.80;;
57297;SDS011;43147;50.972;18.210;2024-01-11T03:13:58;282.30;;;81.90;;
57297;SDS011;43147;50.972;18.210;2024-01-11T03:16:24;341.50;;;100.30;;
57297;SDS011;43147;50.972;18.210;2024-01-11T03:18:49;300.90;;;87.20;;
57297;SDS011;43147;50.972;18.210;2024-01-11T03:21:15;269.10;;;77.10;;
57297;SDS011;43147;50.972;18.210;2024-01-11T03:23:41;392.90;;;119.80;;
57297;SDS011;43147;50.972;18.210;2024-01-11T03:26:16;277.80;;;100.20;;
57297;SDS011;43147;50.972;18.210;2024-01-11T03:28:42;178.60;;;63.10;;
57297;SDS011;43147;50.972;18.210;2024-01-11T03:31:09;185.20;;;65.60;;
57297;SDS011;43147;50.972;18.210;2024-01-11T03:33:34;272.30;;;89.40;;
57297;SDS011;43147;50.972;18.210;2024-01-11T03:36:05;208.10;;;73.40;;
57297;SDS011;43147;50.972;18.210;2024-01-11T03:38:32;257.50;;;84.70;;
57297;SDS011;43147;50.972;18.210;2024-01-11T03:40:58;267.10;;;84.60;;
57297;SDS011;43147;50.972;18.210;2024-01-11T03:43:23;265.10;;;86.00;;
57297;SDS011;43147;50.972;18.210;2024-01-11T03:45:49;203.20;;;74.30;;
57297;SDS011;43147;50.972;18.210;2024-01-11T03:48:14;261.70;;;87.30;;
57297;SDS011;43147;50.972;18.210;2024-01-11T03:50:40;320.50;;;100.90;;
57297;SDS011;43147;50.972;18.210;2024-01-11T03:53:05;321.00;;;94.50;;
57297;SDS011;43147;50.972;18.210;2024-01-11T03:55:31;235.90;;;77.50;;
57297;SDS011;43147;50.972;18.210;2024-01-11T03:57:56;277.80;;;88.90;;
57297;SDS011;43147;50.972;18.210;2024-01-11T04:00:22;277.70;;;94.30;;
57297;SDS011;43147;50.972;18.210;2024-01-11T04:02:47;243.90;;;71.80;;
57297;SDS011;43147;50.972;18.210;2024-01-11T04:05:13;175.30;;;64.70;;
57297;SDS011;43147;50.972;18.210;2024-01-11T04:07:38;265.40;;;84.70;;
57297;SDS011;43147;50.972;18.210;2024-01-11T04:10:04;383.50;;;117.10;;
57297;SDS011;43147;50.972;18.210;2024-01-11T04:12:30;296.50;;;90.00;;
57297;SDS011;43147;50.972;18.210;2024-01-11T04:14:55;278.10;;;85.20;;
57297;SDS011;43147;50.972;18.210;2024-01-11T04:17:21;324.20;;;100.60;;
57297;SDS011;43147;50.972;18.210;2024-01-11T04:19:49;306.10;;;92.50;;
57297;SDS011;43147;50.972;18.210;2024-01-11T04:22:15;288.10;;;95.00;;
57297;SDS011;43147;50.972;18.210;2024-01-11T04:24:42;239.30;;;74.70;;
57297;SDS011;43147;50.972;18.210;2024-01-11T04:27:08;260.70;;;85.30;;
57297;SDS011;43147;50.972;18.210;2024-01-11T04:29:34;245.00;;;80.50;;
57297;SDS011;43147;50.972;18.210;2024-01-11T04:32:00;285.60;;;96.30;;
57297;SDS011;43147;50.972;18.210;2024-01-11T04:34:26;278.60;;;96.10;;
57297;SDS011;43147;50.972;18.210;2024-01-11T04:36:52;343.20;;;104.90;;
57297;SDS011;43147;50.972;18.210;2024-01-11T04:39:17;345.20;;;109.50;;
57297;SDS011;43147;50.972;18.210;2024-01-11T04:41:43;323.20;;;116.50;;
57297;SDS011;43147;50.972;18.210;2024-01-11T04:44:08;316.90;;;104.30;;
57297;SDS011;43147;50.972;18.210;2024-01-11T04:46:35;192.50;;;72.80;;
57297;SDS011;43147;50.972;18.210;2024-01-11T04:49:00;265.90;;;85.40;;
57297;SDS011;43147;50.972;18.210;2024-01-11T04:51:26;272.60;;;89.40;;
57297;SDS011;43147;50.972;18.210;2024-01-11T04:53:51;239.00;;;80.50;;
57297;SDS011;43147;50.972;18.210;2024-01-11T04:56:17;405.70;;;131.10;;
57297;SDS011;43147;50.972;18.210;2024-01-11T04:58:43;307.70;;;99.90;;
57297;SDS011;43147;50.972;18.210;2024-01-11T05:01:13;369.60;;;116.40;;
57297;SDS011;43147;50.972;18.210;2024-01-11T05:03:40;306.50;;;102.10;;
57297;SDS011;43147;50.972;18.210;2024-01-11T05:06:06;305.40;;;107.00;;
57297;SDS011;43147;50.972;18.210;2024-01-11T05:08:32;172.40;;;65.00;;
57297;SDS011;43147;50.972;18.210;2024-01-11T05:10:57;391.40;;;118.60;;
57297;SDS011;43147;50.972;18.210;2024-01-11T05:13:23;306.00;;;99.10;;
57297;SDS011;43147;50.972;18.210;2024-01-11T05:15:48;341.30;;;101.40;;
57297;SDS011;43147;50.972;18.210;2024-01-11T05:18:14;311.00;;;99.60;;
57297;SDS011;43147;50.972;18.210;2024-01-11T05:20:39;393.70;;;124.20;;
57297;SDS011;43147;50.972;18.210;2024-01-11T05:23:05;406.90;;;126.20;;
57297;SDS011;43147;50.972;18.210;2024-01-11T05:25:31;395.10;;;129.10;;
57297;SDS011;43147;50.972;18.210;2024-01-11T05:28:00;427.10;;;138.70;;
57297;SDS011;43147;50.972;18.210;2024-01-11T05:30:26;270.30;;;98.80;;
57297;SDS011;43147;50.972;18.210;2024-01-11T05:32:53;332.10;;;106.20;;
57297;SDS011;43147;50.972;18.210;2024-01-11T05:35:19;212.80;;;65.60;;
57297;SDS011;43147;50.972;18.210;2024-01-11T05:37:44;294.50;;;91.30;;
57297;SDS011;43147;50.972;18.210;2024-01-11T05:40:11;347.30;;;109.10;;
57297;SDS011;43147;50.972;18.210;2024-01-11T05:42:36;321.80;;;102.60;;
57297;SDS011;43147;50.972;18.210;2024-01-11T05:45:04;328.60;;;99.70;;
57297;SDS011;43147;50.972;18.210;2024-01-11T05:47:33;354.60;;;108.80;;
57297;SDS011;43147;50.972;18.210;2024-01-11T05:49:58;301.60;;;91.80;;
57297;SDS011;43147;50.972;18.210;2024-01-11T05:52:24;459.80;;;136.30;;
57297;SDS011;43147;50.972;18.210;2024-01-11T05:54:49;329.20;;;99.90;;
57297;SDS011;43147;50.972;18.210;2024-01-11T05:57:15;252.30;;;81.30;;
57297;SDS011;43147;50.972;18.210;2024-01-11T05:59:45;269.90;;;84.20;;
57297;SDS011;43147;50.972;18.210;2024-01-11T06:02:13;176.30;;;51.60;;
57297;SDS011;43147;50.972;18.210;2024-01-11T06:04:39;234.80;;;74.70;;
57297;SDS011;43147;50.972;18.210;2024-01-11T06:07:05;252.00;;;68.70;;
57297;SDS011;43147;50.972;18.210;2024-01-11T06:09:30;262.20;;;79.00;;
57297;SDS011;43147;50.972;18.210;2024-01-11T06:11:56;242.50;;;77.70;;
57297;SDS011;43147;50.972;18.210;2024-01-11T06:14:21;309.40;;;97.70;;
57297;SDS011;43147;50.972;18.210;2024-01-11T06:16:47;268.00;;;87.70;;
57297;SDS011;43147;50.972;18.210;2024-01-11T06:19:13;302.10;;;93.10;;
57297;SDS011;43147;50.972;18.210;2024-01-11T06:21:39;177.60;;;61.80;;
57297;SDS011;43147;50.972;18.210;2024-01-11T06:24:04;221.20;;;71.90;;
57297;SDS011;43147;50.972;18.210;2024-01-11T06:26:30;289.30;;;81.70;;
57297;SDS011;43147;50.972;18.210;2024-01-11T06:28:55;251.40;;;72.60;;
57297;SDS011;43147;50.972;18.210;2024-01-11T06:31:21;244.40;;;74.10;;
57297;SDS011;43147;50.972;18.210;2024-01-11T06:33:47;220.90;;;68.90;;
57297;SDS011;43147;50.972;18.210;2024-01-11T06:36:12;275.00;;;78.10;;
57297;SDS011;43147;50.972;18.210;2024-01-11T06:38:38;226.40;;;65.20;;
57297;SDS011;43147;50.972;18.210;2024-01-11T06:41:03;267.20;;;75.00;;
57297;SDS011;43147;50.972;18.210;2024-01-11T06:43:29;260.40;;;79.50;;
57297;SDS011;43147;50.972;18.210;2024-01-11T06:45:54;342.60;;;96.30;;
57297;SDS011;43147;50.972;18.210;2024-01-11T06:48:20;342.70;;;100.80;;
57297;SDS011;43147;50.972;18.210;2024-01-11T06:50:45;277.90;;;82.30;;
57297;SDS011;43147;50.972;18.210;2024-01-11T06:53:11;289.80;;;85.70;;
57297;SDS011;43147;50.972;18.210;2024-01-11T06:55:36;328.70;;;95.70;;
57297;SDS011;43147;50.972;18.210;2024-01-11T06:58:02;293.50;;;88.10;;
57297;SDS011;43147;50.972;18.210;2024-01-11T07:00:27;364.60;;;115.40;;
57297;SDS011;43147;50.972;18.210;2024-01-11T07:02:54;390.00;;;115.00;;
57297;SDS011;43147;50.972;18.210;2024-01-11T07:05:20;367.00;;;105.50;;
57297;SDS011;43147;50.972;18.210;2024-01-11T07:07:45;285.90;;;90.30;;
57297;SDS011;43147;50.972;18.210;2024-01-11T07:10:11;250.80;;;77.60;;
57297;SDS011;43147;50.972;18.210;2024-01-11T07:12:37;215.40;;;71.10;;
57297;SDS011;43147;50.972;18.210;2024-01-11T07:15:06;230.30;;;68.20;;
57297;SDS011;43147;50.972;18.210;2024-01-11T07:17:35;247.70;;;74.30;;
57297;SDS011;43147;50.972;18.210;2024-01-11T07:20:01;181.80;;;56.90;;
57297;SDS011;43147;50.972;18.210;2024-01-11T07:22:31;293.20;;;85.00;;
57297;SDS011;43147;50.972;18.210;2024-01-11T07:24:57;253.20;;;80.70;;
57297;SDS011;43147;50.972;18.210;2024-01-11T07:27:22;317.50;;;93.00;;
57297;SDS011;43147;50.972;18.210;2024-01-11T07:29:48;190.30;;;61.80;;
57297;SDS011;43147;50.972;18.210;2024-01-11T07:32:13;262.70;;;79.50;;
57297;SDS011;43147;50.972;18.210;2024-01-11T07:34:39;189.80;;;60.20;;
57297;SDS011;43147;50.972;18.210;2024-01-11T07:37:04;254.30;;;79.00;;
57297;SDS011;43147;50.972;18.210;2024-01-11T07:39:30;190.60;;;58.80;;
57297;SDS011;43147;50.972;18.210;2024-01-11T07:41:56;218.80;;;65.50;;
57297;SDS011;43147;50.972;18.210;2024-01-11T07:44:22;223.00;;;68.60;;
57297;SDS011;43147;50.972;18.210;2024-01-11T07:46:47;222.00;;;66.80;;
57297;SDS011;43147;50.972;18.210;2024-01-11T07:49:12;246.70;;;72.30;;
57297;SDS011;43147;50.972;18.210;2024-01-11T07:51:40;209.10;;;64.10;;
57297;SDS011;43147;50.972;18.210;2024-01-11T07:54:05;179.40;;;51.50;;
57297;SDS011;43147;50.972;18.210;2024-01-11T07:56:31;204.20;;;56.80;;
57297;SDS011;43147;50.972;18.210;2024-01-11T07:58:56;215.60;;;67.80;;
57297;SDS011;43147;50.972;18.210;2024-01-11T08:01:22;149.30;;;49.90;;
57297;SDS011;43147;50.972;18.210;2024-01-11T08:03:48;219.30;;;62.30;;
57297;SDS011;43147;50.972;18.210;2024-01-11T08:06:17;178.30;;;58.90;;
57297;SDS011;43147;50.972;18.210;2024-01-11T08:08:43;178.80;;;50.80;;
57297;SDS011;43147;50.972;18.210;2024-01-11T08:11:09;133.80;;;42.50;;
57297;SDS011;43147;50.972;18.210;2024-01-11T08:13:35;198.00;;;61.60;;
57297;SDS011;43147;50.972;18.210;2024-01-11T08:16:03;175.20;;;53.70;;
57297;SDS011;43147;50.972;18.210;2024-01-11T08:18:33;206.50;;;57.50;;
57297;SDS011;43147;50.972;18.210;2024-01-11T08:21:01;211.00;;;59.50;;
57297;SDS011;43147;50.972;18.210;2024-01-11T08:23:28;212.80;;;59.60;;
57297;SDS011;43147;50.972;18.210;2024-01-11T08:25:53;260.10;;;70.00;;
57297;SDS011;43147;50.972;18.210;2024-01-11T08:28:19;227.80;;;66.80;;
57297;SDS011;43147;50.972;18.210;2024-01-11T08:30:45;226.60;;;71.00;;
57297;SDS011;43147;50.972;18.210;2024-01-11T08:33:11;227.50;;;68.60;;
57297;SDS011;43147;50.972;18.210;2024-01-11T08:35:36;215.70;;;66.20;;
57297;SDS011;43147;50.972;18.210;2024-01-11T08:38:05;208.40;;;67.20;;
57297;SDS011;43147;50.972;18.210;2024-01-11T08:40:30;220.80;;;66.40;;
57297;SDS011;43147;50.972;18.210;2024-01-11T08:42:56;210.30;;;66.20;;
57297;SDS011;43147;50.972;18.210;2024-01-11T08:45:21;210.50;;;67.20;;
57297;SDS011;43147;50.972;18.210;2024-01-11T08:47:47;211.50;;;65.20;;
57297;SDS011;43147;50.972;18.210;2024-01-11T08:50:13;219.50;;;66.10;;
57297;SDS011;43147;50.972;18.210;2024-01-11T08:52:40;191.20;;;57.40;;
57297;SDS011;43147;50.972;18.210;2024-01-11T08:55:06;197.00;;;64.30;;
57297;SDS011;43147;50.972;18.210;2024-01-11T08:57:32;187.30;;;58.80;;
57297;SDS011;43147;50.972;18.210;2024-01-11T08:59:58;171.20;;;53.70;;
57297;SDS011;43147;50.972;18.210;2024-01-11T09:02:24;177.90;;;53.10;;
57297;SDS011;43147;50.972;18.210;2024-01-11T09:04:49;174.60;;;54.10;;
57297;SDS011;43147;50.972;18.210;2024-01-11T09:07:15;168.70;;;54.80;;
57297;SDS011;43147;50.972;18.210;2024-01-11T09:09:41;162.90;;;48.30;;
57297;SDS011;43147;50.972;18.210;2024-01-11T09:12:06;150.40;;;47.70;;
57297;SDS011;43147;50.972;18.210;2024-01-11T09:14:32;171.90;;;50.40;;
57297;SDS011;43147;50.972;18.210;2024-01-11T09:16:58;167.60;;;51.40;;
57297;SDS011;43147;50.972;18.210;2024-01-11T09:19:23;147.00;;;46.00;;
57297;SDS011;43147;50.972;18.210;2024-01-11T09:21:49;144.30;;;47.80;;
57297;SDS011;43147;50.972;18.210;2024-01-11T09:24:14;127.70;;;40.50;;
57297;SDS011;43147;50.972;18.210;2024-01-11T09:26:40;138.50;;;46.10;;
57297;SDS011;43147;50.972;18.210;2024-01-11T09:29:05;126.70;;;42.90;;
57297;SDS011;43147;50.972;18.210;2024-01-11T09:31:38;124.50;;;43.60;;
57297;SDS011;43147;50.972;18.210;2024-01-11T09:34:04;115.30;;;40.80;;
57297;SDS011;43147;50.972;18.210;2024-01-11T09:36:32;122.40;;;39.00;;
57297;SDS011;43147;50.972;18.210;2024-01-11T09:38:59;110.60;;;40.60;;
57297;SDS011;43147;50.972;18.210;2024-01-11T09:41:24;120.40;;;39.90;;
57297;SDS011;43147;50.972;18.210;2024-01-11T09:43:51;102.00;;;36.80;;
57297;SDS011;43147;50.972;18.210;2024-01-11T09:46:18;118.20;;;41.40;;
57297;SDS011;43147;50.972;18.210;2024-01-11T09:48:46;120.80;;;40.00;;
57297;SDS011;43147;50.972;18.210;2024-01-11T09:51:13;106.50;;;39.10;;
57297;SDS011;43147;50.972;18.210;2024-01-11T09:53:39;121.00;;;40.30;;
57297;SDS011;43147;50.972;18.210;2024-01-11T09:56:09;115.60;;;40.30;;
57297;SDS011;43147;50.972;18.210;2024-01-11T09:58:35;112.70;;;40.20;;
57297;SDS011;43147;50.972;18.210;2024-01-11T10:01:06;113.40;;;38.00;;
57297;SDS011;43147;50.972;18.210;2024-01-11T10:03:34;93.60;;;31.20;;
57297;SDS011;43147;50.972;18.210;2024-01-11T10:05:59;101.60;;;35.30;;
57297;SDS011;43147;50.972;18.210;2024-01-11T10:08:27;87.70;;;33.40;;
57297;SDS011;43147;50.972;18.210;2024-01-11T10:10:53;83.00;;;32.00;;
57297;SDS011;43147;50.972;18.210;2024-01-11T10:13:18;68.00;;;26.00;;
57297;SDS011;43147;50.972;18.210;2024-01-11T10:15:51;82.30;;;29.80;;
57297;SDS011;43147;50.972;18.210;2024-01-11T10:18:17;89.00;;;31.20;;
57297;SDS011;43147;50.972;18.210;2024-01-11T10:20:47;96.70;;;30.90;;
57297;SDS011;43147;50.972;18.210;2024-01-11T10:23:13;86.90;;;31.90;;
57297;SDS011;43147;50.972;18.210;2024-01-11T10:25:39;82.10;;;30.60;;
57297;SDS011;43147;50.972;18.210;2024-01-11T10:28:07;82.40;;;30.40;;
57297;SDS011;43147;50.972;18.210;2024-01-11T10:30:35;88.10;;;32.60;;
57297;SDS011;43147;50.972;18.210;2024-01-11T10:33:01;76.60;;;28.60;;
57297;SDS011;43147;50.972;18.210;2024-01-11T10:35:28;85.80;;;31.00;;
57297;SDS011;43147;50.972;18.210;2024-01-11T10:37:53;94.70;;;31.60;;
57297;SDS011;43147;50.972;18.210;2024-01-11T10:40:20;89.20;;;31.10;;
57297;SDS011;43147;50.972;18.210;2024-01-11T10:42:49;97.20;;;32.30;;
57297;SDS011;43147;50.972;18.210;2024-01-11T10:45:20;92.20;;;31.60;;
57297;SDS011;43147;50.972;18.210;2024-01-11T10:50:29;66.50;;;24.10;;
57297;SDS011;43147;50.972;18.210;2024-01-11T10:53:01;77.90;;;27.80;;
57297;SDS011;43147;50.972;18.210;2024-01-11T10:55:30;78.40;;;27.70;;
57297;SDS011;43147;50.972;18.210;2024-01-11T10:58:00;79.50;;;28.70;;
57297;SDS011;43147;50.972;18.210;2024-01-11T11:00:27;88.20;;;30.90;;
57297;SDS011;43147;50.972;18.210;2024-01-11T11:02:54;81.90;;;29.30;;
57297;SDS011;43147;50.972;18.210;2024-01-11T11:05:21;83.80;;;29.70;;
57297;SDS011;43147;50.972;18.210;2024-01-11T11:07:51;71.60;;;28.00;;
57297;SDS011;43147;50.972;18.210;2024-01-11T11:10:17;56.50;;;21.20;;
57297;SDS011;43147;50.972;18.210;2024-01-11T11:12:44;84.00;;;29.10;;
57297;SDS011;43147;50.972;18.210;2024-01-11T11:15:12;73.20;;;28.20;;
57297;SDS011;43147;50.972;18.210;2024-01-11T11:17:38;94.70;;;32.50;;
57297;SDS011;43147;50.972;18.210;2024-01-11T11:20:06;86.60;;;29.80;;
57297;SDS011;43147;50.972;18.210;2024-01-11T11:22:34;67.20;;;23.90;;
57297;SDS011;43147;50.972;18.210;2024-01-11T11:25:07;80.40;;;28.20;;
57297;SDS011;43147;50.972;18.210;2024-01-11T11:27:36;90.80;;;29.40;;
57297;SDS011;43147;50.972;18.210;2024-01-11T11:30:05;77.10;;;30.00;;
57297;SDS011;43147;50.972;18.210;2024-01-11T11:32:37;80.80;;;27.30;;
57297;SDS011;43147;50.972;18.210;2024-01-11T11:35:06;82.70;;;27.30;;
57297;SDS011;43147;50.972;18.210;2024-01-11T11:37:36;72.50;;;27.00;;
57297;SDS011;43147;50.972;18.210;2024-01-11T11:40:03;73.60;;;27.60;;
57297;SDS011;43147;50.972;18.210;2024-01-11T11:42:36;61.10;;;24.70;;
57297;SDS011;43147;50.972;18.210;2024-01-11T11:45:02;71.10;;;26.70;;
57297;SDS011;43147;50.972;18.210;2024-01-11T11:47:34;84.10;;;27.50;;
57297;SDS011;43147;50.972;18.210;2024-01-11T11:50:10;89.80;;;29.60;;
57297;SDS011;43147;50.972;18.210;2024-01-11T11:52:37;69.30;;;24.40;;
57297;SDS011;43147;50.972;18.210;2024-01-11T11:55:07;70.80;;;24.60;;
57297;SDS011;43147;50.972;18.210;2024-01-11T11:57:34;64.40;;;23.60;;
57297;SDS011;43147;50.972;18.210;2024-01-11T12:00:00;62.30;;;23.20;;
57297;SDS011;43147;50.972;18.210;2024-01-11T12:02:31;58.00;;;22.80;;
57297;SDS011;43147;50.972;18.210;2024-01-11T12:04:58;61.80;;;23.00;;
57297;SDS011;43147;50.972;18.210;2024-01-11T12:07:23;49.60;;;21.10;;
57297;SDS011;43147;50.972;18.210;2024-01-11T12:09:50;41.70;;;18.10;;
57297;SDS011;43147;50.972;18.210;2024-01-11T12:12:16;54.50;;;19.80;;
57297;SDS011;43147;50.972;18.210;2024-01-11T12:14:49;52.40;;;22.00;;
57297;SDS011;43147;50.972;18.210;2024-01-11T12:17:15;64.30;;;23.90;;
57297;SDS011;43147;50.972;18.210;2024-01-11T12:19:41;50.60;;;21.60;;
57297;SDS011;43147;50.972;18.210;2024-01-11T12:22:07;54.70;;;20.30;;
57297;SDS011;43147;50.972;18.210;2024-01-11T12:24:32;53.20;;;20.40;;
57297;SDS011;43147;50.972;18.210;2024-01-11T12:27:01;37.80;;;15.50;;
57297;SDS011;43147;50.972;18.210;2024-01-11T12:29:30;52.60;;;20.80;;
57297;SDS011;43147;50.972;18.210;2024-01-11T12:31:57;49.20;;;18.00;;
57297;SDS011;43147;50.972;18.210;2024-01-11T12:34:28;49.10;;;20.10;;
57297;SDS011;43147;50.972;18.210;2024-01-11T12:36:54;48.40;;;21.00;;
57297;SDS011;43147;50.972;18.210;2024-01-11T12:39:23;53.40;;;20.30;;
57297;SDS011;43147;50.972;18.210;2024-01-11T12:41:50;44.50;;;17.90;;
57297;SDS011;43147;50.972;18.210;2024-01-11T12:44:17;50.00;;;20.40;;
57297;SDS011;43147;50.972;18.210;2024-01-11T12:46:48;49.10;;;18.60;;
57297;SDS011;43147;50.972;18.210;2024-01-11T12:49:21;48.60;;;19.10;;
57297;SDS011;43147;50.972;18.210;2024-01-11T12:51:49;58.60;;;21.40;;
57297;SDS011;43147;50.972;18.210;2024-01-11T12:54:15;58.10;;;21.40;;
57297;SDS011;43147;50.972;18.210;2024-01-11T12:56:41;52.80;;;20.30;;
57297;SDS011;43147;50.972;18.210;2024-01-11T12:59:07;45.50;;;17.00;;
57297;SDS011;43147;50.972;18.210;2024-01-11T13:01:35;30.00;;;12.90;;
57297;SDS011;43147;50.972;18.210;2024-01-11T13:04:01;44.70;;;17.40;;
57297;SDS011;43147;50.972;18.210;2024-01-11T13:06:29;39.40;;;16.80;;
57297;SDS011;43147;50.972;18.210;2024-01-11T13:08:56;52.70;;;20.50;;
57297;SDS011;43147;50.972;18.210;2024-01-11T13:11:22;59.60;;;21.10;;
57297;SDS011;43147;50.972;18.210;2024-01-11T13:13:49;45.40;;;18.40;;
57297;SDS011;43147;50.972;18.210;2024-01-11T13:16:18;49.10;;;17.80;;
57297;SDS011;43147;50.972;18.210;2024-01-11T13:18:45;51.40;;;18.60;;
57297;SDS011;43147;50.972;18.210;2024-01-11T13:21:14;61.10;;;20.90;;
57297;SDS011;43147;50.972;18.210;2024-01-11T13:23:41;43.80;;;19.00;;
57297;SDS011;43147;50.972;18.210;2024-01-11T13:26:07;49.20;;;20.10;;
57297;SDS011;43147;50.972;18.210;2024-01-11T13:28:34;61.80;;;21.70;;
57297;SDS011;43147;50.972;18.210;2024-01-11T13:30:59;53.50;;;19.60;;
57297;SDS011;43147;50.972;18.210;2024-01-11T13:33:25;52.80;;;20.70;;
57297;SDS011;43147;50.972;18.210;2024-01-11T13:35:50;54.00;;;17.90;;
57297;SDS011;43147;50.972;18.210;2024-01-11T13:38:16;48.20;;;19.60;;
57297;SDS011;43147;50.972;18.210;2024-01-11T13:40:42;47.50;;;18.00;;
57297;SDS011;43147;50.972;18.210;2024-01-11T13:43:08;43.30;;;17.00;;
57297;SDS011;43147;50.972;18.210;2024-01-11T13:45:34;49.80;;;19.10;;
57297;SDS011;43147;50.972;18.210;2024-01-11T13:48:04;45.10;;;17.30;;
57297;SDS011;43147;50.972;18.210;2024-01-11T13:50:30;49.30;;;15.80;;
57297;SDS011;43147;50.972;18.210;2024-01-11T13:52:56;36.30;;;15.50;;
57297;SDS011;43147;50.972;18.210;2024-01-11T13:55:22;35.90;;;14.50;;
57297;SDS011;43147;50.972;18.210;2024-01-11T13:57:48;42.80;;;16.30;;